createdAt,value
2023-01-21T00:01:10.819Z,11.00
2023-01-21T00:03:38.483Z,8.55
2023-01-21T00:06:06.516Z,10.02
2023-01-21T00:08:34.749Z,9.48
2023-01-21T00:11:09.980Z,9.50
2023-01-21T00:13:37.448Z,11.20
2023-01-21T00:16:05.274Z,10.32
2023-01-21T00:18:33.669Z,10.32
2023-01-21T00:21:01.037Z,9.13
2023-01-21T00:23:28.700Z,9.10
2023-01-21T00:26:00.499Z,8.85
2023-01-21T00:28:29.566Z,9.30
2023-01-21T00:31:01.272Z,7.43
2023-01-21T00:33:30.094Z,8.05
2023-01-21T00:36:08.807Z,8.55
2023-01-21T00:38:36.601Z,8.50
2023-01-21T00:41:06.219Z,8.68
2023-01-21T00:43:34.383Z,8.50
2023-01-21T00:46:01.577Z,8.18
2023-01-21T00:48:29.053Z,7.78
2023-01-21T00:51:00.536Z,7.78
2023-01-21T00:53:29.201Z,7.68
2023-01-21T00:56:04.222Z,7.78
2023-01-21T00:58:31.983Z,8.65
2023-01-21T01:01:04.751Z,7.65
2023-01-21T01:03:32.765Z,7.80
2023-01-21T01:06:11.562Z,6.38
2023-01-21T01:08:39.038Z,6.20
2023-01-21T01:11:06.372Z,6.13
2023-01-21T01:13:35.691Z,6.35
2023-01-21T01:16:03.568Z,6.55
2023-01-21T01:18:33.797Z,6.63
2023-01-21T01:21:01.824Z,4.72
2023-01-21T01:23:29.612Z,6.32
2023-01-21T01:26:05.824Z,6.15
2023-01-21T01:28:33.953Z,6.43
2023-01-21T01:31:03.890Z,5.03
2023-01-21T01:33:31.656Z,5.32
2023-01-21T01:36:03.089Z,5.32
2023-01-21T01:38:30.966Z,4.85
2023-01-21T01:40:58.058Z,5.25
2023-01-21T01:44:00.636Z,4.85
2023-01-21T01:46:31.088Z,5.07
2023-01-21T01:49:16.992Z,4.57
2023-01-21T01:51:44.076Z,4.50
2023-01-21T01:54:14.941Z,4.80
2023-01-21T01:56:45.270Z,5.18
2023-01-21T01:59:13.077Z,5.13
2023-01-21T02:01:40.186Z,4.63
2023-01-21T02:04:13.359Z,5.30
2023-01-21T02:06:42.839Z,4.57
2023-01-21T02:09:10.128Z,3.53
2023-01-21T02:11:37.429Z,4.50
2023-01-21T02:14:05.794Z,4.70
2023-01-21T02:16:47.441Z,3.90
2023-01-21T02:19:17.943Z,4.00
2023-01-21T02:22:03.964Z,4.38
2023-01-21T02:24:50.069Z,3.80
2023-01-21T02:27:30.188Z,3.55
2023-01-21T02:30:10.384Z,4.05
2023-01-21T02:33:11.218Z,4.00
2023-01-21T02:36:12.133Z,3.90
2023-01-21T02:38:47.867Z,4.20
2023-01-21T02:41:34.225Z,4.20
2023-01-21T02:44:17.442Z,3.88
2023-01-21T02:46:47.202Z,4.35
2023-01-21T02:49:38.324Z,4.28
2023-01-21T02:52:05.941Z,4.50
2023-01-21T02:54:38.871Z,4.28
2023-01-21T02:57:16.999Z,4.40
2023-01-21T02:59:49.837Z,4.47
2023-01-21T03:02:32.217Z,4.00
2023-01-21T03:05:19.925Z,4.57
2023-01-21T03:07:53.237Z,3.60
2023-01-21T03:10:43.410Z,3.40
2023-01-21T03:13:42.021Z,4.05
2023-01-21T03:16:32.080Z,4.60
2023-01-21T03:19:05.749Z,4.68
2023-01-21T03:21:35.387Z,4.28
2023-01-21T03:24:03.062Z,4.68
2023-01-21T03:26:35.352Z,4.82
2023-01-21T03:29:09.514Z,4.50
2023-01-21T03:31:40.082Z,4.13
2023-01-21T03:34:10.469Z,4.40
2023-01-21T03:36:37.547Z,3.75
2023-01-21T03:39:16.052Z,4.03
2023-01-21T03:41:43.231Z,4.22
2023-01-21T03:44:10.877Z,3.90
2023-01-21T03:47:00.738Z,4.68
2023-01-21T03:49:30.945Z,3.92
2023-01-21T03:52:00.854Z,3.92
2023-01-21T03:54:28.328Z,3.15
2023-01-21T03:56:55.329Z,3.58
2023-01-21T03:59:22.928Z,3.80
2023-01-21T04:01:50.027Z,3.15
2023-01-21T04:04:17.406Z,3.28
2023-01-21T04:06:44.398Z,3.78
2023-01-21T04:09:12.006Z,4.30
2023-01-21T04:11:39.060Z,3.40
2023-01-21T04:14:06.797Z,3.92
2023-01-21T04:16:33.930Z,3.85
2023-01-21T04:19:01.321Z,3.65
2023-01-21T04:21:28.355Z,3.58
2023-01-21T04:23:55.769Z,3.45
2023-01-21T04:26:22.880Z,3.28
2023-01-21T04:28:50.253Z,2.95
2023-01-21T04:31:17.378Z,3.65
2023-01-21T04:33:44.694Z,3.97
2023-01-21T04:36:11.805Z,3.17
2023-01-21T04:38:39.079Z,3.70
2023-01-21T04:41:06.271Z,3.88
2023-01-21T04:43:33.537Z,3.92
2023-01-21T04:46:00.634Z,4.40
2023-01-21T04:48:28.112Z,4.03
2023-01-21T04:50:55.246Z,3.70
2023-01-21T04:53:22.593Z,4.43
2023-01-21T04:55:52.449Z,3.80
2023-01-21T04:58:20.931Z,3.17
2023-01-21T05:00:48.241Z,3.17
2023-01-21T05:03:15.854Z,4.25
2023-01-21T05:05:42.901Z,3.70
2023-01-21T05:08:10.222Z,4.40
2023-01-21T05:10:37.312Z,4.32
2023-01-21T05:13:04.920Z,3.65
2023-01-21T05:15:32.724Z,4.20
2023-01-21T05:18:00.689Z,4.43
2023-01-21T05:20:27.708Z,5.75
2023-01-21T05:22:55.117Z,7.18
2023-01-21T05:25:22.119Z,3.90
2023-01-21T05:27:53.791Z,4.20
2023-01-21T05:30:21.594Z,3.58
2023-01-21T05:32:53.135Z,4.53
2023-01-21T05:35:22.248Z,3.35
2023-01-21T05:37:50.745Z,3.42
2023-01-21T05:40:18.602Z,3.88
2023-01-21T05:42:46.855Z,3.53
2023-01-21T05:45:14.303Z,3.60
2023-01-21T05:47:42.015Z,3.50
2023-01-21T05:50:10.006Z,3.72
2023-01-21T05:52:37.684Z,3.33
2023-01-21T05:55:05.117Z,3.85
2023-01-21T05:57:32.861Z,3.50
2023-01-21T06:00:00.016Z,3.25
2023-01-21T06:02:27.448Z,3.47
2023-01-21T06:04:54.568Z,3.30
2023-01-21T06:07:21.951Z,3.67
2023-01-21T06:09:48.982Z,3.47
2023-01-21T06:12:16.383Z,2.33
2023-01-21T06:14:43.373Z,3.00
2023-01-21T06:17:10.698Z,3.40
2023-01-21T06:19:37.823Z,3.08
2023-01-21T06:22:05.114Z,3.47
2023-01-21T06:24:35.242Z,2.80
2023-01-21T06:27:02.848Z,3.67
2023-01-21T06:29:29.838Z,3.10
2023-01-21T06:31:57.355Z,3.40
2023-01-21T06:34:24.409Z,3.33
2023-01-21T06:36:51.767Z,2.53
2023-01-21T06:39:19.167Z,3.50
2023-01-21T06:41:46.728Z,3.70
2023-01-21T06:44:13.708Z,2.85
2023-01-21T06:46:43.426Z,3.15
2023-01-21T06:49:12.975Z,2.75
2023-01-21T06:51:40.325Z,2.92
2023-01-21T06:54:07.373Z,2.70
2023-01-21T06:56:34.762Z,2.80
2023-01-21T06:59:01.896Z,2.92
2023-01-21T07:01:32.382Z,4.00
2023-01-21T07:04:01.335Z,2.83
2023-01-21T07:06:28.670Z,2.42
2023-01-21T07:08:55.731Z,2.40
2023-01-21T07:11:23.118Z,3.00
2023-01-21T07:13:50.141Z,2.95
2023-01-21T07:16:17.554Z,3.90
2023-01-21T07:18:44.652Z,3.42
2023-01-21T07:21:12.028Z,3.85
2023-01-21T07:23:39.062Z,2.75
2023-01-21T07:26:06.563Z,3.08
2023-01-21T07:28:34.119Z,3.22
2023-01-21T07:31:02.440Z,3.40
2023-01-21T07:33:29.956Z,3.80
2023-01-21T07:35:57.256Z,4.22
2023-01-21T07:38:24.333Z,3.60
2023-01-21T07:40:51.685Z,3.95
2023-01-21T07:43:18.745Z,4.78
2023-01-21T07:45:46.230Z,6.00
2023-01-21T07:48:13.319Z,6.20
2023-01-21T07:50:40.757Z,5.93
2023-01-21T07:53:07.912Z,5.85
2023-01-21T07:55:35.371Z,5.55
2023-01-21T07:58:02.352Z,6.75
2023-01-21T08:00:29.734Z,6.82
2023-01-21T08:02:57.771Z,5.90
2023-01-21T08:05:26.268Z,6.65
2023-01-21T08:07:58.236Z,6.55
2023-01-21T08:10:26.544Z,6.65
2023-01-21T08:12:53.594Z,9.73
2023-01-21T08:15:21.346Z,7.55
2023-01-21T08:17:48.885Z,11.63
2023-01-21T08:20:16.554Z,15.98
2023-01-21T08:22:43.624Z,13.95
2023-01-21T08:25:11.717Z,27.58
2023-01-21T08:27:38.981Z,13.52
2023-01-21T08:30:07.178Z,13.65
2023-01-21T08:32:34.241Z,12.57
2023-01-21T08:35:03.079Z,12.45
2023-01-21T08:37:30.120Z,11.35
2023-01-21T08:39:57.448Z,10.55
2023-01-21T08:42:24.539Z,9.48
2023-01-21T08:44:51.839Z,9.50
2023-01-21T08:47:18.912Z,9.57
2023-01-21T08:49:46.253Z,9.18
2023-01-21T08:52:13.524Z,9.05
2023-01-21T08:54:41.463Z,9.40
2023-01-21T08:57:08.579Z,10.15
2023-01-21T08:59:35.969Z,9.70
2023-01-21T09:02:02.993Z,10.38
2023-01-21T09:04:30.460Z,11.05
2023-01-21T09:06:57.596Z,5.63
2023-01-21T09:09:24.876Z,6.90
2023-01-21T09:11:52.773Z,6.25
2023-01-21T09:14:21.518Z,5.15
2023-01-21T09:16:49.582Z,5.10
2023-01-21T09:19:17.269Z,4.30
2023-01-21T09:21:44.429Z,4.65
2023-01-21T09:24:11.804Z,4.75
2023-01-21T09:26:44.107Z,4.47
2023-01-21T09:29:11.603Z,4.38
2023-01-21T09:31:38.799Z,5.38
2023-01-21T09:34:06.549Z,5.60
2023-01-21T09:36:34.921Z,5.55
2023-01-21T09:39:02.434Z,5.72
2023-01-21T09:41:37.487Z,4.63
2023-01-21T09:44:26.665Z,5.00
2023-01-21T09:47:06.115Z,6.65
2023-01-21T09:49:46.459Z,5.43
2023-01-21T09:52:29.108Z,5.90
2023-01-21T09:54:58.133Z,7.13
2023-01-21T09:57:34.334Z,5.65
2023-01-21T10:00:16.576Z,5.10
2023-01-21T10:02:57.766Z,6.30
2023-01-21T10:05:25.124Z,5.75
2023-01-21T10:08:08.991Z,6.47
2023-01-21T10:10:57.745Z,6.60
2023-01-21T10:13:45.907Z,7.18
2023-01-21T10:16:29.657Z,6.20
2023-01-21T10:18:58.521Z,6.95
2023-01-21T10:22:02.044Z,7.28
2023-01-21T10:24:51.336Z,6.28
2023-01-21T10:27:21.256Z,7.30
2023-01-21T10:29:59.316Z,7.35
2023-01-21T10:32:28.051Z,6.95
2023-01-21T10:34:57.204Z,7.32
2023-01-21T10:37:27.296Z,7.20
2023-01-21T10:39:58.083Z,6.75
2023-01-21T10:42:37.806Z,6.75
2023-01-21T10:45:13.627Z,7.32
2023-01-21T10:48:05.319Z,7.93
2023-01-21T10:50:38.185Z,6.00
2023-01-21T10:53:14.868Z,6.78
2023-01-21T10:56:07.327Z,7.90
2023-01-21T10:58:45.414Z,7.80
2023-01-21T11:01:22.062Z,7.10
2023-01-21T11:03:53.481Z,7.25
2023-01-21T11:06:23.030Z,6.15
2023-01-21T11:08:56.042Z,6.13
2023-01-21T11:11:30.398Z,6.65
2023-01-21T11:13:57.994Z,8.13
2023-01-21T11:16:51.276Z,8.30
2023-01-21T11:19:24.867Z,6.55
2023-01-21T11:22:27.423Z,7.65
2023-01-21T11:24:55.047Z,6.43
2023-01-21T11:27:37.970Z,7.75
2023-01-21T11:30:25.889Z,8.25
2023-01-21T11:32:54.407Z,7.97
2023-01-21T11:35:23.081Z,8.90
2023-01-21T11:37:50.602Z,7.80
2023-01-21T11:40:21.451Z,8.82
2023-01-21T11:42:54.515Z,8.15
2023-01-21T11:45:31.962Z,11.60
2023-01-21T11:48:00.537Z,8.07
2023-01-21T11:50:40.661Z,9.00
2023-01-21T11:53:13.736Z,8.38
2023-01-21T11:55:54.271Z,9.55
2023-01-21T11:58:38.128Z,9.30
2023-01-21T12:01:08.691Z,9.15
2023-01-21T12:03:42.770Z,9.95
2023-01-21T12:06:17.137Z,9.88
2023-01-21T12:08:49.667Z,9.48
2023-01-21T12:11:23.148Z,9.55
2023-01-21T12:14:08.740Z,10.20
2023-01-21T12:16:55.038Z,9.45
2023-01-21T12:19:36.235Z,9.82
2023-01-21T12:22:30.929Z,9.77
2023-01-21T12:25:22.839Z,8.77
2023-01-21T12:28:34.521Z,9.15
2023-01-21T12:31:32.673Z,10.13
2023-01-21T12:34:08.991Z,9.88
2023-01-21T12:36:49.366Z,9.63
2023-01-21T12:39:33.616Z,10.20
2023-01-21T12:42:12.223Z,10.27
2023-01-21T12:44:45.965Z,9.48
2023-01-21T12:47:25.650Z,10.45
2023-01-21T12:50:17.674Z,9.93
2023-01-21T12:53:09.435Z,10.85
2023-01-21T12:55:45.392Z,10.50
2023-01-21T12:58:15.906Z,10.25
2023-01-21T13:00:47.679Z,10.98
2023-01-21T13:03:32.903Z,11.32
2023-01-21T13:06:17.278Z,10.60
2023-01-21T13:09:14.004Z,10.10
2023-01-21T13:11:58.361Z,10.30
2023-01-21T13:14:40.373Z,9.95
2023-01-21T13:17:16.358Z,11.18
2023-01-21T13:19:43.474Z,11.13
2023-01-21T13:22:43.008Z,10.73
2023-01-21T13:25:37.626Z,10.68
2023-01-21T13:28:07.858Z,6.65
2023-01-21T13:30:56.425Z,10.82
2023-01-21T13:33:42.168Z,10.65
2023-01-21T13:36:26.460Z,9.25
2023-01-21T13:39:05.410Z,11.02
2023-01-21T13:41:57.482Z,12.15
2023-01-21T13:44:40.087Z,11.40
2023-01-21T13:47:22.237Z,10.68
2023-01-21T13:50:01.656Z,11.93
2023-01-21T13:52:43.700Z,11.50
2023-01-21T13:55:32.002Z,10.95
2023-01-21T13:58:08.629Z,10.70
2023-01-21T14:03:24.840Z,11.10
2023-01-21T14:05:56.585Z,11.82
2023-01-21T14:08:43.425Z,12.20
2023-01-21T14:11:31.342Z,11.77
2023-01-21T14:14:16.641Z,11.15
2023-01-21T14:17:32.338Z,11.35
2023-01-21T14:20:28.262Z,10.95
2023-01-21T14:23:22.452Z,10.85
2023-01-21T14:26:08.612Z,11.07
2023-01-21T14:29:17.256Z,11.52
2023-01-21T14:32:04.907Z,11.63
2023-01-21T14:34:39.879Z,10.85
2023-01-21T14:37:15.791Z,11.38
2023-01-21T14:40:01.720Z,12.80
2023-01-21T14:42:49.132Z,11.20
2023-01-21T14:45:27.383Z,12.82
2023-01-21T14:47:58.378Z,12.40
2023-01-21T14:50:50.821Z,10.32
2023-01-21T14:53:26.346Z,10.82
2023-01-21T14:56:22.377Z,13.93
2023-01-21T14:58:54.423Z,11.45
2023-01-21T15:01:46.049Z,11.50
2023-01-21T15:04:29.420Z,12.55
2023-01-21T15:07:00.650Z,13.75
2023-01-21T15:09:32.687Z,12.68
2023-01-21T15:12:03.291Z,12.23
2023-01-21T15:14:39.848Z,12.55
2023-01-21T15:17:47.205Z,14.25
2023-01-21T15:20:44.049Z,12.90
2023-01-21T15:23:17.253Z,12.47
2023-01-21T15:26:09.081Z,12.35
2023-01-21T15:28:46.476Z,12.65
2023-01-21T15:31:41.220Z,17.52
2023-01-21T15:34:15.721Z,14.63
2023-01-21T15:36:50.417Z,13.93
2023-01-21T15:39:27.518Z,12.20
2023-01-21T15:42:19.213Z,11.90
2023-01-21T15:44:58.040Z,12.13
2023-01-21T15:47:41.155Z,14.25
2023-01-21T15:50:20.641Z,14.82
2023-01-21T15:53:26.695Z,12.43
2023-01-21T15:56:18.163Z,10.98
2023-01-21T15:59:05.429Z,12.45
2023-01-21T16:01:37.965Z,11.95
2023-01-21T16:04:32.703Z,12.27
2023-01-21T16:07:24.971Z,11.48
2023-01-21T16:10:16.447Z,12.88
2023-01-21T16:12:46.824Z,12.20
2023-01-21T16:15:44.354Z,12.77
2023-01-21T16:18:21.397Z,11.18
2023-01-21T16:20:53.304Z,11.88
2023-01-21T16:23:24.622Z,10.07
2023-01-21T16:25:53.000Z,12.50
2023-01-21T16:28:21.337Z,12.43
2023-01-21T16:30:54.990Z,12.88
2023-01-21T16:33:24.037Z,11.18
2023-01-21T16:35:54.493Z,12.98
2023-01-21T16:38:27.544Z,12.00
2023-01-21T16:41:06.555Z,11.02
2023-01-21T16:43:36.616Z,10.13
2023-01-21T16:46:14.764Z,11.13
2023-01-21T16:48:42.601Z,11.75
2023-01-21T16:51:23.799Z,12.98
2023-01-21T16:54:14.586Z,13.13
2023-01-21T16:56:49.237Z,12.85
2023-01-21T16:59:30.129Z,14.48
2023-01-21T17:01:59.162Z,12.70
2023-01-21T17:04:28.512Z,13.88
2023-01-21T17:06:55.746Z,14.00
2023-01-21T17:09:33.803Z,11.32
2023-01-21T17:12:08.491Z,13.88
2023-01-21T17:14:37.220Z,16.00
2023-01-21T17:17:08.325Z,13.38
2023-01-21T17:19:42.952Z,13.13
2023-01-21T17:22:19.895Z,13.52
2023-01-21T17:25:00.512Z,14.98
2023-01-21T17:27:28.130Z,14.90
2023-01-21T17:30:31.977Z,14.48
2023-01-21T17:33:01.721Z,13.02
2023-01-21T17:35:32.017Z,13.45
2023-01-21T17:38:05.728Z,14.50
2023-01-21T17:41:03.698Z,14.30
2023-01-21T17:43:32.342Z,14.18
2023-01-21T17:46:00.494Z,11.80
2023-01-21T17:48:28.229Z,13.77
2023-01-21T17:51:03.274Z,13.95
2023-01-21T17:53:31.171Z,12.82
2023-01-21T17:56:00.570Z,13.10
2023-01-21T17:58:46.067Z,13.95
2023-01-21T18:01:13.935Z,12.05
2023-01-21T18:03:41.281Z,12.25
2023-01-21T18:06:24.322Z,12.90
2023-01-21T18:08:52.813Z,15.18
2023-01-21T18:11:21.382Z,13.20
2023-01-21T18:13:48.728Z,14.13
2023-01-21T18:16:16.261Z,13.45
2023-01-21T18:18:43.515Z,13.38
2023-01-21T18:21:19.732Z,13.68
2023-01-21T18:23:48.113Z,14.57
2023-01-21T18:26:38.231Z,13.15
2023-01-21T18:29:05.433Z,14.43
2023-01-21T18:31:32.819Z,14.57
2023-01-21T18:33:59.932Z,15.63
2023-01-21T18:36:27.588Z,15.02
2023-01-21T18:38:54.655Z,14.55
2023-01-21T18:41:22.034Z,15.30
2023-01-21T18:43:49.064Z,15.40
2023-01-21T18:46:16.610Z,15.27
2023-01-21T18:48:43.864Z,15.15
2023-01-21T18:51:13.394Z,14.93
2023-01-21T18:53:40.546Z,15.75
2023-01-21T18:56:12.520Z,15.52
2023-01-21T18:58:39.609Z,14.70
2023-01-21T19:01:21.427Z,16.88
2023-01-21T19:03:52.363Z,14.85
2023-01-21T19:06:19.928Z,14.75
2023-01-21T19:08:48.723Z,15.65
2023-01-21T19:11:16.801Z,14.75
2023-01-21T19:13:43.918Z,14.43
2023-01-21T19:16:17.196Z,15.40
2023-01-21T19:18:44.820Z,13.88
2023-01-21T19:21:12.492Z,14.73
2023-01-21T19:23:40.426Z,14.80
2023-01-21T19:26:09.891Z,14.50
2023-01-21T19:28:37.357Z,15.70
2023-01-21T19:31:04.940Z,16.15
2023-01-21T19:33:32.078Z,15.55
2023-01-21T19:36:06.549Z,16.27
2023-01-21T19:38:33.575Z,15.32
2023-01-21T19:41:00.862Z,14.52
2023-01-21T19:43:28.170Z,15.77
2023-01-21T19:45:58.131Z,13.82
2023-01-21T19:48:27.502Z,15.70
2023-01-21T19:50:54.854Z,16.35
2023-01-21T19:53:23.258Z,15.40
2023-01-21T19:55:51.083Z,15.50
2023-01-21T19:58:21.117Z,14.95
2023-01-21T20:00:51.067Z,13.38
2023-01-21T20:03:19.526Z,16.67
2023-01-21T20:05:49.729Z,19.35
2023-01-21T20:08:24.262Z,20.38
2023-01-21T20:10:52.059Z,18.65
2023-01-21T20:13:19.204Z,17.40
2023-01-21T20:15:49.185Z,15.90
2023-01-21T20:18:28.080Z,17.63
2023-01-21T20:20:56.222Z,19.63
2023-01-21T20:23:25.211Z,17.67
2023-01-21T20:25:56.724Z,16.90
2023-01-21T20:28:26.623Z,16.30
2023-01-21T20:30:54.855Z,13.82
2023-01-21T20:33:23.985Z,14.60
2023-01-21T20:35:53.341Z,14.55
2023-01-21T20:38:26.619Z,12.75
2023-01-21T20:40:54.123Z,14.25
2023-01-21T20:43:21.284Z,15.73
2023-01-21T20:45:49.379Z,17.50
2023-01-21T20:48:25.192Z,19.52
2023-01-21T20:50:53.222Z,19.95
2023-01-21T20:53:20.694Z,15.93
2023-01-21T20:55:51.345Z,18.20
2023-01-21T20:58:21.899Z,15.43
2023-01-21T21:00:50.225Z,16.10
2023-01-21T21:03:18.444Z,16.75
2023-01-21T21:05:47.239Z,15.48
2023-01-21T21:08:16.272Z,22.73
2023-01-21T21:10:44.114Z,15.98
2023-01-21T21:13:12.337Z,15.30
2023-01-21T21:15:41.614Z,17.65
2023-01-21T21:18:13.917Z,17.95
2023-01-21T21:20:41.969Z,15.88
2023-01-21T21:23:14.139Z,19.33
2023-01-21T21:25:47.263Z,18.40
2023-01-21T21:28:16.993Z,18.75
2023-01-21T21:30:45.040Z,19.25
2023-01-21T21:33:20.387Z,20.33
2023-01-21T21:35:48.426Z,21.83
2023-01-21T21:38:18.152Z,19.83
2023-01-21T21:40:47.327Z,21.80
2023-01-21T21:43:38.801Z,20.75
2023-01-21T21:46:28.918Z,18.63
2023-01-21T21:48:56.113Z,19.33
2023-01-21T21:51:24.139Z,20.15
2023-01-21T21:53:51.718Z,17.60
2023-01-21T21:56:21.846Z,15.43
2023-01-21T21:58:49.906Z,16.05
2023-01-21T22:01:23.273Z,14.65
2023-01-21T22:03:51.368Z,15.65
2023-01-21T22:06:22.508Z,14.23
2023-01-21T22:08:49.685Z,13.55
2023-01-21T22:11:19.120Z,12.43
2023-01-21T22:13:50.090Z,12.57
2023-01-21T22:16:23.689Z,14.63
2023-01-21T22:18:51.552Z,15.77
2023-01-21T22:21:28.380Z,14.18
2023-01-21T22:23:55.847Z,16.05
2023-01-21T22:26:25.510Z,17.95
2023-01-21T22:28:53.191Z,21.40
2023-01-21T22:31:25.533Z,22.55
2023-01-21T22:33:53.411Z,20.88
2023-01-21T22:36:22.944Z,19.38
2023-01-21T22:38:51.261Z,23.15
2023-01-21T22:41:21.343Z,21.80
2023-01-21T22:43:49.492Z,21.80
2023-01-21T22:46:25.934Z,21.30
2023-01-21T22:48:54.553Z,17.90
2023-01-21T22:51:23.155Z,18.10
2023-01-21T22:53:51.488Z,19.13
2023-01-21T22:56:25.367Z,15.32
2023-01-21T22:58:58.820Z,17.50
2023-01-21T23:01:31.055Z,16.27
2023-01-21T23:03:59.151Z,14.57
2023-01-21T23:06:26.864Z,14.23
2023-01-21T23:08:54.079Z,17.95
2023-01-21T23:11:21.898Z,16.02
2023-01-21T23:13:49.677Z,17.58
2023-01-21T23:16:19.156Z,18.15
2023-01-21T23:18:46.804Z,17.45
2023-01-21T23:21:20.930Z,20.15
2023-01-21T23:23:48.576Z,17.65
2023-01-21T23:26:18.321Z,14.32
2023-01-21T23:28:45.706Z,15.00
2023-01-21T23:31:15.705Z,15.05
2023-01-21T23:33:43.135Z,15.10
2023-01-21T23:36:13.790Z,13.15
2023-01-21T23:38:41.707Z,14.27
2023-01-21T23:41:11.475Z,12.82
2023-01-21T23:43:38.625Z,12.98
2023-01-21T23:46:07.891Z,10.98
2023-01-21T23:48:35.065Z,11.13
2023-01-21T23:51:10.845Z,12.45
2023-01-21T23:53:38.014Z,13.35
2023-01-21T23:56:10.508Z,13.02
2023-01-21T23:58:37.528Z,13.25
